Time;durP1;ratioP1;P1;durP2;ratioP2;P2;SDS_P1;SDS_P2;PMS_P1;PMS_P2;Temp;Humidity;BMP_temperature;BMP_pressure;BME280_temperature;BME280_humidity;BME280_pressure;Samples;Min_cycle;Max_cycle;Signal;HPM_P1;HPM_P2
2022/06/12 00:00:12;;;;;;;2.00;0.95;;;18.60;93.50;;;;;;4972973;28;20027;-75
2022/06/12 00:02:38;;;;;;;2.63;0.95;;;18.70;93.50;;;;;;4973010;28;20022;-75
2022/06/12 00:05:04;;;;;;;2.35;1.05;;;18.70;93.40;;;;;;4955583;28;20511;-75
2022/06/12 00:07:30;;;;;;;2.70;1.08;;;18.70;93.70;;;;;;4955533;28;20042;-77
2022/06/12 00:09:55;;;;;;;2.17;1.08;;;18.70;93.50;;;;;;4955782;28;20586;-74
2022/06/12 00:12:22;;;;;;;3.55;1.17;;;18.60;93.40;;;;;;4955707;28;20057;-75
2022/06/12 00:14:47;;;;;;;3.33;1.08;;;18.60;93.50;;;;;;4987830;28;20023;-74
2022/06/12 00:17:13;;;;;;;3.38;1.20;;;18.60;93.60;;;;;;4955623;28;20030;-74
2022/06/12 00:19:40;;;;;;;2.60;1.10;;;18.60;93.60;;;;;;4955725;28;20485;-75
2022/06/12 00:22:06;;;;;;;3.60;0.98;;;18.60;93.60;;;;;;4976055;28;20030;-75
2022/06/12 00:24:32;;;;;;;2.08;0.98;;;18.50;93.60;;;;;;4976759;28;20395;-74
2022/06/12 00:26:58;;;;;;;2.63;1.10;;;18.60;93.70;;;;;;4976594;28;20043;-75
2022/06/12 00:29:27;;;;;;;2.35;1.00;;;18.50;93.70;;;;;;4976709;28;20110;-76
2022/06/12 00:32:01;;;;;;;3.85;1.00;;;18.50;93.70;;;;;;4976612;28;20034;-75
2022/06/12 00:34:30;;;;;;;2.88;1.10;;;18.50;93.70;;;;;;4959267;28;20027;-75
2022/06/12 00:36:57;;;;;;;1.90;0.90;;;18.50;93.70;;;;;;4959106;28;20111;-75
2022/06/12 00:39:24;;;;;;;1.55;0.93;;;18.60;93.80;;;;;;4976639;28;20026;-75
2022/06/12 00:41:52;;;;;;;2.28;1.33;;;18.50;93.70;;;;;;4976604;28;20026;-75
2022/06/12 00:44:22;;;;;;;2.95;1.00;;;18.50;93.80;;;;;;4975988;28;20062;-74
2022/06/12 00:46:55;;;;;;;2.95;1.00;;;18.50;93.70;;;;;;4955930;29;20110;-75
2022/06/12 00:49:29;;;;;;;3.80;1.30;;;18.60;93.70;;;;;;4957122;28;20038;-75
2022/06/12 00:52:00;;;;;;;1.60;0.95;;;18.50;93.60;;;;;;4976663;28;20033;-75
2022/06/12 00:54:26;;;;;;;2.65;1.00;;;18.60;93.60;;;;;;4976073;28;20031;-75
2022/06/12 00:56:57;;;;;;;2.58;1.02;;;18.60;93.50;;;;;;4956645;28;20027;-75
2022/06/12 00:59:42;;;;;;;2.00;1.10;;;18.60;93.50;;;;;;4958833;28;20019;-75
2022/06/12 01:02:14;;;;;;;2.33;1.17;;;18.60;93.40;;;;;;4957967;28;20034;-75
2022/06/12 01:07:35;;;;;;;1.33;0.85;;;18.60;93.40;;;;;;4976470;28;20034;-75
2022/06/12 01:10:05;;;;;;;1.00;0.80;;;18.60;93.50;;;;;;4958413;28;20033;-75
2022/06/12 01:12:35;;;;;;;1.88;1.20;;;18.60;93.50;;;;;;4975906;28;20027;-76
2022/06/12 01:15:07;;;;;;;2.08;1.10;;;18.60;93.60;;;;;;4975606;28;20031;-74
2022/06/12 01:17:33;;;;;;;2.50;1.00;;;18.60;93.60;;;;;;4958530;28;20023;-75
2022/06/12 01:20:06;;;;;;;1.42;0.90;;;18.60;93.60;;;;;;4975801;28;20046;-75
2022/06/12 01:22:50;;;;;;;1.45;1.00;;;18.60;93.60;;;;;;4958691;28;20495;-75
2022/06/12 01:25:39;;;;;;;2.65;1.17;;;18.50;93.60;;;;;;4975442;28;20043;-76
2022/06/12 01:28:31;;;;;;;2.20;0.93;;;18.50;93.70;;;;;;4958497;28;20117;-74
2022/06/12 01:31:06;;;;;;;1.60;1.00;;;18.50;93.70;;;;;;4912489;28;20578;-75
2022/06/12 01:33:53;;;;;;;1.70;0.80;;;18.50;93.70;;;;;;4973781;28;20085;-74
2022/06/12 01:36:37;;;;;;;1.83;1.08;;;18.50;93.70;;;;;;4990357;28;20038;-75
2022/06/12 01:39:18;;;;;;;1.40;1.10;;;18.50;93.70;;;;;;4990447;28;20448;-74
2022/06/12 01:42:01;;;;;;;2.50;1.20;;;18.50;93.70;;;;;;4957882;28;20440;-75
2022/06/12 01:45:19;;;;;;;2.05;1.13;;;18.50;93.70;;;;;;4955236;28;20133;-75
2022/06/12 01:48:02;;;;;;;1.90;1.05;;;18.50;93.60;;;;;;4967061;28;20023;-75
2022/06/12 01:50:56;;;;;;;1.77;1.05;;;18.50;93.60;;;;;;4978714;28;20094;-75
2022/06/12 01:53:33;;;;;;;1.70;1.00;;;18.50;93.50;;;;;;4966690;28;20026;-75
2022/06/12 01:56:15;;;;;;;2.22;0.90;;;18.60;93.50;;;;;;4957964;28;20118;-75
2022/06/12 01:59:02;;;;;;;2.08;0.90;;;18.60;93.40;;;;;;4957920;28;20109;-75
2022/06/12 02:01:59;;;;;;;1.73;1.00;;;18.60;93.70;;;;;;4957940;28;20054;-75
2022/06/12 02:04:41;;;;;;;2.33;1.10;;;18.60;93.40;;;;;;4973476;28;20435;-75
2022/06/12 02:07:25;;;;;;;2.78;1.20;;;18.60;93.50;;;;;;4975392;28;20261;-75
2022/06/12 02:10:15;;;;;;;1.77;1.10;;;18.60;93.50;;;;;;4957791;28;20039;-76
2022/06/12 02:15:38;;;;;;;1.67;1.00;;;18.50;93.60;;;;;;4975098;28;20085;-74
2022/06/12 02:18:15;;;;;;;2.40;1.00;;;18.50;93.60;;;;;;4968404;28;20118;-75
2022/06/12 02:20:45;;;;;;;2.30;1.15;;;18.50;93.60;;;;;;4955406;29;20055;-74
2022/06/12 02:23:17;;;;;;;2.25;1.20;;;18.50;93.70;;;;;;4972722;28;20078;-75
2022/06/12 02:25:46;;;;;;;1.40;0.90;;;18.50;93.70;;;;;;4957396;28;20031;-75
2022/06/12 02:28:20;;;;;;;2.58;1.17;;;18.50;93.70;;;;;;4974062;28;20484;-73
2022/06/12 02:30:53;;;;;;;2.45;1.00;;;18.50;93.70;;;;;;4974584;28;20125;-75
2022/06/12 02:33:23;;;;;;;1.70;1.10;;;18.40;93.70;;;;;;4968389;28;20102;-74
2022/06/12 02:35:58;;;;;;;1.90;0.98;;;18.50;93.70;;;;;;4956094;28;20122;-75
2022/06/12 02:38:38;;;;;;;2.63;1.40;;;18.50;93.70;;;;;;4955133;29;20087;-74
2022/06/12 02:41:13;;;;;;;1.92;0.95;;;18.50;93.70;;;;;;4972111;28;20508;-75
2022/06/12 02:43:43;;;;;;;1.55;0.93;;;18.50;93.60;;;;;;4973982;28;20111;-75
2022/06/12 02:46:16;;;;;;;1.83;1.10;;;18.50;93.60;;;;;;4957123;28;20027;-75
2022/06/12 02:48:43;;;;;;;1.63;1.00;;;18.60;93.50;;;;;;4956819;28;20031;-75
2022/06/12 02:51:12;;;;;;;2.42;1.10;;;18.60;93.50;;;;;;4973912;28;20085;-74
2022/06/12 02:54:02;;;;;;;2.80;1.27;;;18.50;93.40;;;;;;4973589;28;20488;-75
2022/06/12 02:56:42;;;;;;;1.48;0.90;;;18.50;93.30;;;;;;4989396;28;20031;-75
2022/06/12 02:59:36;;;;;;;1.33;1.00;;;18.60;93.40;;;;;;4989124;28;20023;-75
2022/06/12 03:02:43;;;;;;;1.70;1.00;;;18.60;93.40;;;;;;4956891;28;20050;-75
2022/06/12 03:05:28;;;;;;;2.22;1.05;;;18.60;93.50;;;;;;4955654;28;20035;-75
2022/06/12 03:08:01;;;;;;;1.48;1.00;;;18.50;93.50;;;;;;4956378;28;20031;-75
2022/06/12 03:10:34;;;;;;;2.50;1.17;;;18.50;93.50;;;;;;4956450;28;20042;-74
2022/06/12 03:13:02;;;;;;;2.00;0.93;;;18.50;93.60;;;;;;4956148;28;20109;-75
2022/06/12 03:15:42;;;;;;;2.25;1.10;;;18.40;93.50;;;;;;4973733;28;20396;-75
2022/06/12 03:18:12;;;;;;;2.28;1.10;;;18.50;93.60;;;;;;4956386;28;20027;-75
2022/06/12 03:20:49;;;;;;;1.77;0.98;;;18.50;93.60;;;;;;4988639;28;20031;-76
2022/06/12 03:23:26;;;;;;;2.92;1.25;;;18.40;93.60;;;;;;4973238;28;20026;-75
2022/06/12 03:25:56;;;;;;;1.85;1.00;;;18.50;93.60;;;;;;4956166;28;20030;-75
2022/06/12 03:28:45;;;;;;;1.80;1.08;;;18.40;93.60;;;;;;4956019;28;20034;-75
2022/06/12 03:31:26;;;;;;;1.73;1.00;;;18.40;93.60;;;;;;4955913;28;20503;-75
2022/06/12 03:34:05;;;;;;;1.75;1.00;;;18.40;93.60;;;;;;4956091;28;20058;-75
2022/06/12 03:36:49;;;;;;;1.15;0.85;;;18.40;93.60;;;;;;4956432;28;20105;-75
2022/06/12 03:39:30;;;;;;;1.35;1.02;;;18.40;93.60;;;;;;4973551;28;20078;-75
2022/06/12 03:41:59;;;;;;;3.08;1.05;;;18.50;93.60;;;;;;4967261;28;20617;-74
2022/06/12 03:44:41;;;;;;;1.42;0.98;;;18.50;93.50;;;;;;4968531;28;20031;-74
2022/06/12 03:47:27;;;;;;;1.45;0.90;;;18.50;93.50;;;;;;4994392;28;20022;-74
2022/06/12 03:50:04;;;;;;;1.98;1.00;;;18.60;93.40;;;;;;4991511;28;20400;-75
2022/06/12 03:52:38;;;;;;;2.25;1.13;;;18.60;93.30;;;;;;4973494;28;20053;-75
2022/06/12 03:55:08;;;;;;;3.08;1.00;;;18.60;93.30;;;;;;4955047;28;20027;-74
2022/06/12 03:57:51;;;;;;;1.43;1.00;;;18.60;93.40;;;;;;4955989;28;20492;-76
2022/06/12 04:00:35;;;;;;;2.53;1.20;;;18.60;93.40;;;;;;4955923;28;20037;-76
2022/06/12 04:03:04;;;;;;;2.03;1.15;;;18.50;93.40;;;;;;4972889;28;20031;-74
2022/06/12 04:05:41;;;;;;;1.42;0.90;;;18.50;93.50;;;;;;4955619;28;20121;-75
2022/06/12 04:08:12;;;;;;;1.77;1.10;;;18.50;93.50;;;;;;4973000;28;20041;-75
2022/06/12 04:10:39;;;;;;;2.17;1.02;;;18.50;93.50;;;;;;4955758;28;20038;-75
2022/06/12 04:13:08;;;;;;;2.20;1.10;;;18.50;93.50;;;;;;4955575;28;20503;-75
2022/06/12 04:15:51;;;;;;;1.95;1.10;;;18.50;93.50;;;;;;4972742;28;20434;-75
2022/06/12 04:18:17;;;;;;;2.20;1.10;;;18.50;93.50;;;;;;4955911;28;20034;-74
2022/06/12 04:20:57;;;;;;;3.67;1.10;;;18.40;93.50;;;;;;4972829;28;20058;-75
2022/06/12 04:23:50;;;;;;;2.63;1.10;;;18.50;93.60;;;;;;4972718;28;20038;-75
2022/06/12 04:26:38;;;;;;;1.75;0.90;;;18.50;93.60;;;;;;4952599;28;20034;-75
2022/06/12 04:29:13;;;;;;;2.15;1.10;;;18.50;93.60;;;;;;4942800;28;20033;-75
2022/06/12 04:31:41;;;;;;;2.75;1.25;;;18.50;93.80;;;;;;4955324;28;20504;-75
2022/06/12 04:34:23;;;;;;;1.90;0.90;;;18.40;93.50;;;;;;4951775;28;20515;-75
2022/06/12 04:37:00;;;;;;;1.63;1.00;;;18.50;93.50;;;;;;4936427;29;20035;-75
2022/06/12 04:39:29;;;;;;;2.15;0.90;;;18.50;93.50;;;;;;4936425;29;20034;-74
2022/06/12 04:41:55;;;;;;;2.05;1.02;;;18.50;93.40;;;;;;4936361;29;20037;-74
2022/06/12 04:44:21;;;;;;;2.67;1.15;;;18.50;93.30;;;;;;4935958;28;20027;-75
2022/06/12 04:46:49;;;;;;;2.17;1.10;;;18.60;93.30;;;;;;4953400;29;20444;-75
2022/06/12 04:49:21;;;;;;;2.50;1.10;;;18.60;93.30;;;;;;4936470;29;20027;-75
2022/06/12 04:51:48;;;;;;;2.85;1.10;;;18.60;93.20;;;;;;4936204;29;20035;-75
2022/06/12 04:54:14;;;;;;;1.65;0.93;;;18.60;93.20;;;;;;4952830;28;20058;-74
2022/06/12 04:56:40;;;;;;;2.15;1.00;;;18.50;93.20;;;;;;4936201;29;20026;-75
2022/06/12 04:59:06;;;;;;;1.95;1.00;;;18.60;93.30;;;;;;4953427;29;20027;-74
2022/06/12 05:01:32;;;;;;;2.45;0.95;;;18.60;93.30;;;;;;4936075;29;20075;-76
2022/06/12 05:04:02;;;;;;;1.83;1.00;;;18.50;93.30;;;;;;4953237;29;20027;-74
2022/06/12 05:06:28;;;;;;;1.50;1.00;;;18.50;93.30;;;;;;4935968;28;20031;-75
2022/06/12 05:08:54;;;;;;;1.92;0.90;;;18.50;93.30;;;;;;4954792;29;20034;-75
2022/06/12 05:11:21;;;;;;;1.83;1.00;;;18.50;93.30;;;;;;4939586;29;20080;-75
2022/06/12 05:13:47;;;;;;;2.67;1.10;;;18.50;93.30;;;;;;4939228;29;20557;-75
2022/06/12 05:16:27;;;;;;;1.48;1.02;;;18.50;93.30;;;;;;4956651;28;20059;-75
2022/06/12 05:18:52;;;;;;;1.10;0.93;;;18.50;93.40;;;;;;4939612;29;20404;-75
2022/06/12 05:21:18;;;;;;;5.72;1.13;;;18.50;93.40;;;;;;4939249;29;20273;-75
2022/06/12 05:23:44;;;;;;;1.35;1.02;;;18.50;93.40;;;;;;4955999;29;20035;-75
2022/06/12 05:26:14;;;;;;;3.25;1.10;;;18.50;93.40;;;;;;4955033;28;20028;-75
2022/06/12 05:28:40;;;;;;;2.00;1.08;;;18.50;93.30;;;;;;4939363;29;20035;-75
2022/06/12 05:31:05;;;;;;;1.17;0.90;;;18.50;93.30;;;;;;4955226;29;20027;-75
2022/06/12 05:33:31;;;;;;;2.20;1.10;;;18.60;93.40;;;;;;4938970;29;20024;-75
2022/06/12 05:35:56;;;;;;;1.30;0.90;;;18.50;93.30;;;;;;4939056;29;20477;-75
2022/06/12 05:38:22;;;;;;;1.98;1.10;;;18.60;93.30;;;;;;4955003;29;20106;-74
2022/06/12 05:40:47;;;;;;;1.23;0.95;;;18.60;93.20;;;;;;4939228;29;20144;-74
2022/06/12 05:43:13;;;;;;;2.08;1.00;;;18.60;93.10;;;;;;4955974;29;20035;-74
2022/06/12 05:45:38;;;;;;;2.60;1.00;;;18.70;93.00;;;;;;4939028;29;20562;-75
2022/06/12 05:48:09;;;;;;;1.40;0.95;;;18.70;93.00;;;;;;4938935;29;20035;-75
2022/06/12 05:50:36;;;;;;;2.08;1.20;;;18.60;92.90;;;;;;4938800;29;20027;-75
2022/06/12 05:53:02;;;;;;;1.27;0.90;;;18.70;92.90;;;;;;4938811;29;20027;-75
2022/06/12 05:55:28;;;;;;;2.13;1.10;;;18.60;92.90;;;;;;4955755;28;20031;-75
2022/06/12 05:57:54;;;;;;;2.78;1.10;;;18.60;93.00;;;;;;4938798;29;20031;-75
2022/06/12 06:00:27;;;;;;;1.52;0.82;;;18.60;93.00;;;;;;4938678;29;20031;-75
2022/06/12 06:02:52;;;;;;;2.55;0.98;;;18.60;93.00;;;;;;4955529;29;20030;-74
2022/06/12 06:05:18;;;;;;;1.73;1.00;;;18.60;93.00;;;;;;4955682;28;20027;-75
2022/06/12 06:07:44;;;;;;;1.83;1.05;;;18.60;93.10;;;;;;4955843;29;20024;-75
2022/06/12 06:10:15;;;;;;;1.95;1.10;;;18.60;93.00;;;;;;4955617;29;20062;-75
2022/06/12 06:12:41;;;;;;;2.10;1.08;;;18.60;93.10;;;;;;4955764;29;20031;-75
2022/06/12 06:15:07;;;;;;;1.73;0.90;;;18.60;93.00;;;;;;4955437;28;20118;-75
2022/06/12 06:17:33;;;;;;;2.17;1.00;;;18.60;93.00;;;;;;4938420;29;20019;-75
2022/06/12 06:19:59;;;;;;;3.25;0.90;;;18.60;93.10;;;;;;4955047;28;20114;-74
2022/06/12 06:22:24;;;;;;;1.52;1.02;;;18.60;93.00;;;;;;4955432;29;20032;-75
2022/06/12 06:24:50;;;;;;;1.88;1.05;;;18.60;93.00;;;;;;4944476;28;20085;-75
2022/06/12 06:27:15;;;;;;;1.60;1.00;;;18.60;93.00;;;;;;4957450;28;20077;-74
2022/06/12 06:29:41;;;;;;;1.75;0.98;;;18.70;93.00;;;;;;4956424;28;20033;-75
2022/06/12 06:32:08;;;;;;;1.40;0.90;;;18.70;92.90;;;;;;4957227;28;20027;-75
2022/06/12 06:34:36;;;;;;;1.48;1.00;;;18.60;92.90;;;;;;4956469;28;20034;-76
2022/06/12 06:37:02;;;;;;;1.55;1.00;;;18.70;92.80;;;;;;4957384;28;20031;-75
2022/06/12 06:39:28;;;;;;;1.58;1.00;;;18.70;92.70;;;;;;4973944;28;20560;-75
2022/06/12 06:41:53;;;;;;;1.30;0.90;;;18.80;92.60;;;;;;4957124;28;20034;-74
2022/06/12 06:47:03;;;;;;;2.38;1.10;;;18.80;92.50;;;;;;4955431;29;20498;-75
2022/06/12 06:49:29;;;;;;;1.80;1.17;;;18.80;92.40;;;;;;4954979;29;20565;-75
2022/06/12 06:51:55;;;;;;;2.50;1.08;;;18.80;92.40;;;;;;4969863;28;20071;-75
2022/06/12 06:54:21;;;;;;;1.55;0.98;;;18.80;92.40;;;;;;4954473;28;20118;-75
2022/06/12 06:56:47;;;;;;;2.45;1.10;;;18.80;92.50;;;;;;4975302;28;20058;-75
2022/06/12 06:59:12;;;;;;;1.88;1.00;;;18.80;92.40;;;;;;4972997;28;20034;-74
2022/06/12 07:01:38;;;;;;;1.52;0.95;;;18.80;92.50;;;;;;4973921;28;20500;-75
2022/06/12 07:04:03;;;;;;;1.20;1.00;;;18.80;92.40;;;;;;4955299;28;20422;-74
2022/06/12 07:06:30;;;;;;;1.80;1.10;;;18.80;92.40;;;;;;4956504;28;20077;-75
2022/06/12 07:08:56;;;;;;;1.50;0.93;;;18.80;92.40;;;;;;4972811;28;20466;-75
2022/06/12 07:11:23;;;;;;;1.55;0.90;;;18.80;92.40;;;;;;4956393;28;20065;-74
2022/06/12 07:13:50;;;;;;;2.05;1.00;;;18.80;92.40;;;;;;4973555;28;20035;-75
2022/06/12 07:16:17;;;;;;;1.58;1.08;;;18.80;92.30;;;;;;4956533;28;20495;-74
2022/06/12 07:18:42;;;;;;;2.03;1.20;;;18.90;92.40;;;;;;4956799;28;20031;-74
2022/06/12 07:21:09;;;;;;;1.65;1.00;;;18.90;92.40;;;;;;4973847;28;20230;-75
2022/06/12 07:23:34;;;;;;;1.55;1.00;;;18.90;92.40;;;;;;4955809;28;20037;-75
2022/06/12 07:26:07;;;;;;;2.17;1.10;;;18.90;92.40;;;;;;4973408;28;20097;-74
2022/06/12 07:28:36;;;;;;;1.95;1.23;;;18.90;92.40;;;;;;4955986;28;20493;-74
2022/06/12 07:31:03;;;;;;;2.00;1.13;;;18.90;92.30;;;;;;4945065;28;20118;-70
2022/06/12 07:33:28;;;;;;;2.58;1.27;;;19.00;92.20;;;;;;4954980;28;20077;-72
2022/06/12 07:35:54;;;;;;;1.77;1.08;;;19.00;92.10;;;;;;4972363;28;20039;-71
2022/06/12 07:38:23;;;;;;;2.15;1.20;;;19.00;92.10;;;;;;4954903;28;20030;-72
2022/06/12 07:40:57;;;;;;;1.70;1.20;;;19.10;92.00;;;;;;4961659;28;20453;-71
2022/06/12 07:43:24;;;;;;;1.25;1.00;;;19.10;91.90;;;;;;4970566;28;20026;-71
2022/06/12 07:45:51;;;;;;;1.83;1.10;;;19.10;92.00;;;;;;4954929;28;20077;-71
2022/06/12 07:48:21;;;;;;;2.47;1.40;;;19.10;91.70;;;;;;4954828;28;20076;-71
2022/06/12 07:50:48;;;;;;;1.50;1.00;;;19.20;91.80;;;;;;4972012;28;20515;-71
2022/06/12 07:53:15;;;;;;;2.03;1.20;;;19.10;91.70;;;;;;4954614;28;20476;-71
2022/06/12 07:55:41;;;;;;;1.70;1.27;;;19.10;91.80;;;;;;4954675;28;20027;-71
2022/06/12 07:58:07;;;;;;;2.75;1.40;;;19.10;91.80;;;;;;4987035;28;20404;-71
2022/06/12 08:00:33;;;;;;;2.47;1.40;;;19.10;91.80;;;;;;4953704;28;20512;-75
2022/06/12 08:02:58;;;;;;;2.88;1.30;;;19.10;91.80;;;;;;4954121;28;20038;-72
2022/06/12 08:05:24;;;;;;;3.40;1.48;;;19.10;91.80;;;;;;4953332;28;20027;-71
2022/06/12 08:07:49;;;;;;;2.47;1.27;;;19.10;91.80;;;;;;4972423;28;20035;-72
2022/06/12 08:10:16;;;;;;;2.70;1.40;;;19.10;91.70;;;;;;4960406;28;20493;-75
2022/06/12 08:12:43;;;;;;;1.75;1.25;;;19.10;91.70;;;;;;4972593;28;20050;-73
2022/06/12 08:15:14;;;;;;;2.70;1.45;;;19.20;91.80;;;;;;4972038;28;20081;-74
2022/06/12 08:17:40;;;;;;;2.45;1.35;;;19.20;91.80;;;;;;4973062;28;20018;-76
2022/06/12 08:20:25;;;;;;;3.17;1.52;;;19.20;91.80;;;;;;4954161;28;20039;-73
2022/06/12 08:22:53;;;;;;;2.33;1.52;;;19.20;91.80;;;;;;4967727;28;20023;-72
2022/06/12 08:25:19;;;;;;;3.50;1.30;;;19.20;91.80;;;;;;4972277;28;20432;-75
2022/06/12 08:27:45;;;;;;;2.47;1.40;;;19.20;91.80;;;;;;4973698;28;20033;-79
2022/06/12 08:30:11;;;;;;;2.85;1.52;;;19.20;91.80;;;;;;4988406;28;20035;-72
2022/06/12 08:32:37;;;;;;;1.92;1.25;;;19.20;91.70;;;;;;4974011;28;20038;-74
2022/06/12 08:35:13;;;;;;;2.72;1.30;;;19.20;91.80;;;;;;4973468;28;20500;-76
2022/06/12 08:37:40;;;;;;;3.00;1.42;;;19.30;91.50;;;;;;4988645;28;20098;-75
2022/06/12 08:40:32;;;;;;;3.17;1.30;;;19.30;91.40;;;;;;4988151;28;20113;-75
2022/06/12 08:43:20;;;;;;;3.15;1.60;;;19.40;91.30;;;;;;4989802;28;20019;-75
2022/06/12 08:45:49;;;;;;;2.33;1.40;;;19.40;91.30;;;;;;4976638;28;20034;-76
2022/06/12 08:48:31;;;;;;;1.65;1.20;;;19.40;91.20;;;;;;4959179;28;20079;-76
2022/06/12 08:51:15;;;;;;;2.25;1.30;;;19.40;91.20;;;;;;4959376;28;20030;-75
2022/06/12 08:53:45;;;;;;;2.70;1.42;;;19.40;91.20;;;;;;4959491;28;20022;-75
2022/06/12 08:56:17;;;;;;;3.72;1.50;;;19.30;91.30;;;;;;4960103;28;20559;-76
2022/06/12 08:59:15;;;;;;;2.10;1.25;;;19.40;91.40;;;;;;4959828;28;20121;-76
2022/06/12 09:01:42;;;;;;;2.78;1.60;;;19.30;91.40;;;;;;4976173;28;20041;-76
2022/06/12 09:04:14;;;;;;;3.60;1.45;;;19.30;91.50;;;;;;4975918;28;20026;-75
2022/06/12 09:07:05;;;;;;;3.63;1.50;;;19.30;91.50;;;;;;4959280;28;20117;-76
2022/06/12 09:09:52;;;;;;;3.58;1.30;;;19.30;91.50;;;;;;4978784;28;20062;-76
2022/06/12 09:12:36;;;;;;;3.65;1.40;;;19.40;91.50;;;;;;4961553;28;20505;-76
2022/06/12 09:15:32;;;;;;;2.03;1.20;;;19.40;91.50;;;;;;4976374;28;20030;-75
2022/06/12 09:18:16;;;;;;;1.60;1.15;;;19.40;91.40;;;;;;4976365;28;20023;-76
2022/06/12 09:21:11;;;;;;;1.98;1.27;;;19.40;91.40;;;;;;4959149;28;20114;-77
2022/06/12 09:24:07;;;;;;;2.42;1.20;;;19.40;91.30;;;;;;4958529;28;20053;-75
2022/06/12 09:26:54;;;;;;;3.13;1.45;;;19.40;91.30;;;;;;4958914;28;20030;-78
2022/06/12 09:29:41;;;;;;;2.22;1.30;;;19.50;91.20;;;;;;4959090;28;20026;-75
2022/06/12 09:32:32;;;;;;;2.55;1.35;;;19.50;91.10;;;;;;4973023;28;20491;-75
2022/06/12 09:35:06;;;;;;;;;;;19.50;91.00;;;;;;4955859;28;20031;-76
2022/06/12 09:40:37;;;;;;;2.28;1.40;;;19.60;90.80;;;;;;4976114;28;20120;-75
2022/06/12 09:43:27;;;;;;;2.25;1.10;;;19.70;90.80;;;;;;4975574;28;20504;-76
2022/06/12 09:46:08;;;;;;;;;;;19.60;90.80;;;;;;4956111;28;20026;-75
2022/06/12 09:48:42;;;;;;;2.58;1.30;;;19.60;90.80;;;;;;4975633;28;19910;-75
2022/06/12 09:51:42;;;;;;;3.75;1.35;;;19.60;90.90;;;;;;4938832;29;20031;-75
2022/06/12 09:54:32;;;;;;;2.88;1.30;;;19.60;91.00;;;;;;4930552;28;20049;-75
2022/06/12 09:57:03;;;;;;;2.17;1.30;;;19.60;91.00;;;;;;4977685;28;20031;-75
2022/06/12 09:59:44;;;;;;;2.70;1.20;;;19.60;91.00;;;;;;4976781;28;20488;-75
2022/06/12 10:02:40;;;;;;;1.63;1.10;;;19.60;91.00;;;;;;4976243;28;20412;-77
2022/06/12 10:05:15;;;;;;;1.73;1.10;;;19.60;91.00;;;;;;4953941;28;20035;-74
2022/06/12 10:08:05;;;;;;;3.58;1.10;;;19.60;91.00;;;;;;4976055;28;20461;-75
2022/06/12 10:10:39;;;;;;;3.13;1.20;;;19.60;91.00;;;;;;4975865;28;20030;-75
2022/06/12 10:13:09;;;;;;;2.03;1.10;;;19.60;91.00;;;;;;4959939;28;20026;-78
2022/06/12 10:15:47;;;;;;;3.17;1.00;;;19.60;90.90;;;;;;4960093;28;20090;-81
2022/06/12 10:18:20;;;;;;;3.03;1.10;;;19.70;91.00;;;;;;4961042;28;20023;-77
2022/06/12 10:20:54;;;;;;;1.63;1.10;;;19.60;90.90;;;;;;4960253;28;20023;-80
2022/06/12 10:23:20;;;;;;;1.20;1.02;;;19.60;90.90;;;;;;4959652;28;20069;-77
2022/06/12 10:25:56;;;;;;;3.28;1.00;;;19.70;90.90;;;;;;4975490;28;20023;-78
2022/06/12 10:28:35;;;;;;;2.42;1.10;;;19.70;90.90;;;;;;4960370;28;20551;-78
2022/06/12 10:31:27;;;;;;;3.10;1.15;;;19.70;90.80;;;;;;4957211;28;20075;-76
2022/06/12 10:34:03;;;;;;;2.17;1.10;;;19.70;90.80;;;;;;4962853;28;20454;-73
2022/06/12 10:36:32;;;;;;;2.20;1.17;;;19.70;90.80;;;;;;4957939;28;20389;-78
2022/06/12 10:39:10;;;;;;;2.60;1.10;;;19.70;90.80;;;;;;4975913;28;20082;-77
2022/06/12 10:41:58;;;;;;;3.33;1.15;;;19.60;90.80;;;;;;4956822;28;20043;-73
2022/06/12 10:44:42;;;;;;;2.28;1.05;;;19.60;90.90;;;;;;4967605;28;20034;-80
2022/06/12 10:47:22;;;;;;;1.85;1.10;;;19.60;90.90;;;;;;4958316;28;20038;-76
2022/06/12 10:50:06;;;;;;;2.22;1.20;;;19.60;91.00;;;;;;4984114;28;20054;-79
2022/06/12 10:52:31;;;;;;;2.58;1.10;;;19.50;91.00;;;;;;4976269;28;20066;-76
2022/06/12 10:54:57;;;;;;;8.23;1.50;;;19.50;91.10;;;;;;4975654;28;20031;-77
2022/06/12 10:57:50;;;;;;;12.57;1.48;;;19.50;91.10;;;;;;4958257;28;20023;-78
2022/06/12 11:00:20;;;;;;;12.65;1.63;;;19.50;91.00;;;;;;4974980;28;20026;-79
2022/06/12 11:03:20;;;;;;;13.18;1.88;;;19.60;90.90;;;;;;4962180;28;20564;-78
2022/06/12 11:06:15;;;;;;;7.65;1.90;;;19.60;90.80;;;;;;4944508;28;20478;-78
2022/06/12 11:09:06;;;;;;;8.95;1.50;;;19.60;90.80;;;;;;4947110;29;20046;-78
2022/06/12 11:11:49;;;;;;;7.38;1.40;;;19.60;90.70;;;;;;4970555;28;20042;-76
2022/06/12 11:14:52;;;;;;;8.38;1.20;;;19.60;90.60;;;;;;4969443;28;20109;-78
2022/06/12 11:17:44;;;;;;;5.72;1.50;;;19.60;90.70;;;;;;4956788;28;20026;-78
2022/06/12 11:20:31;;;;;;;9.60;1.52;;;19.60;90.90;;;;;;4921778;28;20042;-75
2022/06/12 11:23:34;;;;;;;10.52;1.40;;;19.80;90.90;;;;;;4954777;28;20102;-74
2022/06/12 11:26:05;;;;;;;9.07;1.42;;;19.80;90.90;;;;;;4973107;28;20122;-77
2022/06/12 11:28:40;;;;;;;12.07;1.45;;;19.90;91.20;;;;;;4973607;28;20031;-77
2022/06/12 11:31:23;;;;;;;5.30;1.27;;;19.90;91.10;;;;;;4974283;28;20101;-76
2022/06/12 11:34:06;;;;;;;7.75;1.42;;;20.00;91.50;;;;;;4974385;28;20019;-77
2022/06/12 11:36:36;;;;;;;7.35;1.60;;;20.10;91.70;;;;;;4973303;28;20034;-78
2022/06/12 11:39:26;;;;;;;8.45;1.75;;;20.20;91.40;;;;;;4973208;28;20496;-78
2022/06/12 11:42:05;;;;;;;6.93;1.48;;;20.30;91.40;;;;;;4989157;28;20412;-77
2022/06/12 11:44:50;;;;;;;7.50;1.40;;;20.40;91.40;;;;;;4972584;28;20515;-77
2022/06/12 11:47:36;;;;;;;4.95;1.58;;;20.50;91.30;;;;;;4988847;28;20563;-76
2022/06/12 11:50:23;;;;;;;5.00;1.48;;;20.50;91.20;;;;;;4972467;28;20070;-77
2022/06/12 11:53:22;;;;;;;5.10;1.55;;;20.60;91.10;;;;;;4955624;28;20031;-78
2022/06/12 11:56:03;;;;;;;6.97;1.60;;;20.60;91.00;;;;;;4973781;28;20061;-78
2022/06/12 11:58:46;;;;;;;6.47;1.75;;;20.70;90.90;;;;;;4956606;28;20086;-78
2022/06/12 12:01:35;;;;;;;8.48;1.80;;;20.80;91.00;;;;;;4973734;28;20102;-77
2022/06/12 12:04:31;;;;;;;5.72;1.50;;;20.80;90.90;;;;;;4973388;28;20023;-77
2022/06/12 12:07:38;;;;;;;7.13;1.70;;;20.90;90.80;;;;;;4972330;28;20038;-78
2022/06/12 12:10:25;;;;;;;9.35;2.17;;;21.00;90.80;;;;;;4988698;28;20117;-77
2022/06/12 12:12:57;;;;;;;7.93;1.70;;;21.10;90.70;;;;;;4988267;28;20027;-77
2022/06/12 12:15:29;;;;;;;8.38;2.20;;;21.00;90.40;;;;;;4956236;28;20019;-76
2022/06/12 12:17:57;;;;;;;8.65;2.10;;;21.00;90.60;;;;;;4979309;28;20031;-78
2022/06/12 12:20:36;;;;;;;8.30;1.85;;;20.80;90.90;;;;;;4994893;28;20518;-77
2022/06/12 12:23:11;;;;;;;8.48;1.77;;;20.80;91.10;;;;;;4979950;28;20615;-76
2022/06/12 12:25:51;;;;;;;5.97;1.65;;;20.60;91.20;;;;;;4994864;28;20031;-76
2022/06/12 12:28:19;;;;;;;9.73;2.03;;;20.60;91.50;;;;;;4978700;28;20027;-78
2022/06/12 12:30:45;;;;;;;7.45;1.55;;;20.50;91.60;;;;;;4962227;28;20031;-77
2022/06/12 12:33:18;;;;;;;7.45;1.50;;;20.50;92.00;;;;;;4979510;28;20093;-77
2022/06/12 12:41:21;;;;;;;6.32;1.60;;;20.30;92.00;;;;;;4979605;28;20115;-76
2022/06/12 12:43:56;;;;;;;7.90;1.80;;;20.30;92.10;;;;;;4979507;28;20551;-77
2022/06/12 12:46:25;;;;;;;6.28;1.92;;;20.20;92.20;;;;;;4979434;28;20027;-78
2022/06/12 12:48:55;;;;;;;5.57;1.80;;;20.20;92.20;;;;;;4962260;28;20492;-76
2022/06/12 12:51:28;;;;;;;6.10;1.70;;;20.20;92.20;;;;;;4994861;28;20061;-75
2022/06/12 12:54:10;;;;;;;5.15;1.80;;;20.20;92.20;;;;;;4979122;28;20111;-76
2022/06/12 12:56:40;;;;;;;5.55;1.55;;;20.20;92.30;;;;;;4962240;28;20031;-73
2022/06/12 12:59:09;;;;;;;7.57;1.50;;;20.10;92.30;;;;;;4979412;28;20703;-73
2022/06/12 13:01:43;;;;;;;8.52;1.90;;;20.10;92.30;;;;;;4979465;28;20022;-74
2022/06/12 13:04:20;;;;;;;7.82;2.08;;;20.10;92.30;;;;;;4979177;28;20046;-75
2022/06/12 13:07:30;;;;;;;5.63;1.48;;;20.10;92.20;;;;;;4994384;28;20031;-73
2022/06/12 13:10:14;;;;;;;7.60;1.60;;;20.10;92.10;;;;;;4977971;28;20119;-73
2022/06/12 13:13:02;;;;;;;5.50;1.50;;;20.10;92.10;;;;;;4979280;28;20027;-76
2022/06/12 13:16:12;;;;;;;5.80;1.75;;;20.10;92.10;;;;;;4979109;28;20105;-77
2022/06/12 13:19:15;;;;;;;6.20;1.88;;;20.10;92.00;;;;;;4932827;28;20173;-77
2022/06/12 13:22:15;;;;;;;7.28;1.70;;;20.00;92.10;;;;;;4978323;28;20502;-77
2022/06/12 13:24:49;;;;;;;6.38;1.80;;;20.00;92.20;;;;;;4979239;28;20050;-78
2022/06/12 13:27:25;;;;;;;7.75;1.73;;;20.00;92.30;;;;;;4994307;28;20074;-77
2022/06/12 13:29:52;;;;;;;5.50;1.80;;;20.00;92.40;;;;;;4990563;28;20022;-77
2022/06/12 13:32:28;;;;;;;7.07;1.50;;;19.90;92.40;;;;;;4976050;28;20030;-80
2022/06/12 13:35:04;;;;;;;5.53;1.55;;;19.90;92.40;;;;;;4958594;28;20031;-78
2022/06/12 13:37:33;;;;;;;8.63;1.55;;;19.90;92.40;;;;;;4976072;28;20085;-76
2022/06/12 13:40:00;;;;;;;8.80;1.88;;;19.90;92.50;;;;;;4958563;28;20023;-79
2022/06/12 13:42:28;;;;;;;4.88;1.40;;;19.90;92.40;;;;;;4991097;28;20059;-77
2022/06/12 13:44:55;;;;;;;6.43;1.52;;;19.80;92.50;;;;;;4957431;28;20031;-76